Time;durP1;ratioP1;P1;durP2;ratioP2;P2;SDS_P1;SDS_P2;PMS_P1;PMS_P2;Temp;Humidity;BMP_temperature;BMP_pressure;BME280_temperature;BME280_humidity;BME280_pressure;Samples;Min_cycle;Max_cycle;Signal;HPM_P1;HPM_P2
2022/11/11 00:04:37;;;;;;;11.43;6.97;;;6.80;99.90;;;;;;10521039;28;20215;-75
2022/11/11 00:09:41;;;;;;;9.03;6.77;;;6.70;99.90;;;;;;10426163;28;20564;-75
2022/11/11 00:14:42;;;;;;;10.43;7.23;;;6.60;99.90;;;;;;10458174;28;20722;-75
2022/11/11 00:25:08;;;;;;;10.97;8.17;;;6.60;99.90;;;;;;10469007;28;20215;-74
2022/11/11 00:30:09;;;;;;;12.23;8.47;;;6.50;99.90;;;;;;10510439;28;20226;-75
2022/11/11 00:40:30;;;;;;;11.40;8.80;;;6.50;99.90;;;;;;10470719;28;20215;-73
2022/11/11 00:45:30;;;;;;;11.60;8.33;;;6.50;99.90;;;;;;10520983;28;20687;-73
2022/11/11 00:55:50;;;;;;;9.67;7.00;;;6.50;99.90;;;;;;10459311;28;20207;-74
2022/11/11 01:00:54;;;;;;;11.93;8.10;;;6.40;99.90;;;;;;10477519;28;20217;-75
2022/11/11 01:06:00;;;;;;;12.63;8.07;;;6.40;99.90;;;;;;10511592;28;20634;-76
2022/11/11 01:11:00;;;;;;;11.40;7.67;;;6.40;99.90;;;;;;10517359;28;20268;-75
2022/11/11 01:16:04;;;;;;;9.87;7.97;;;6.40;99.90;;;;;;10513848;28;20783;-75
2022/11/11 01:21:09;;;;;;;9.27;7.33;;;6.40;99.90;;;;;;10508573;28;20280;-73
2022/11/11 01:26:16;;;;;;;11.40;7.60;;;6.30;99.90;;;;;;10505405;28;20224;-73
2022/11/11 01:31:18;;;;;;;12.70;7.20;;;6.30;99.90;;;;;;10521846;28;20235;-73
2022/11/11 01:36:21;;;;;;;10.37;7.50;;;6.30;99.90;;;;;;10513697;28;20269;-72
2022/11/11 01:41:36;;;;;;;9.10;7.50;;;6.20;99.90;;;;;;10519093;28;20215;-76
2022/11/11 01:47:13;;;;;;;9.30;7.07;;;6.20;99.90;;;;;;10520461;28;20249;-73
2022/11/11 01:52:37;;;;;;;9.23;7.63;;;6.20;99.90;;;;;;10494353;28;20234;-73
2022/11/11 01:57:51;;;;;;;9.60;7.33;;;6.20;99.90;;;;;;10503325;28;20235;-73
2022/11/11 02:02:58;;;;;;;12.13;8.17;;;6.20;99.90;;;;;;10511785;28;20220;-74
2022/11/11 02:08:08;;;;;;;12.93;8.37;;;6.20;99.90;;;;;;10516558;28;20219;-75
2022/11/11 02:18:32;;;;;;;12.27;8.40;;;6.10;99.90;;;;;;10520605;28;20223;-76
2022/11/11 02:24:02;;;;;;;12.73;8.33;;;6.10;99.90;;;;;;10526731;28;20231;-76
2022/11/11 02:29:09;;;;;;;11.23;7.77;;;6.10;99.90;;;;;;10510715;28;20302;-76
2022/11/11 02:34:09;;;;;;;15.27;8.47;;;6.00;99.90;;;;;;10501031;28;20227;-76
2022/11/11 02:39:10;;;;;;;12.37;8.53;;;6.00;99.90;;;;;;10518747;28;20215;-76
2022/11/11 02:44:11;;;;;;;11.57;8.43;;;6.00;99.90;;;;;;10511895;28;20743;-77
2022/11/11 02:49:11;;;;;;;12.23;9.50;;;6.00;99.90;;;;;;10517553;28;20211;-77
2022/11/11 02:54:12;;;;;;;13.07;8.97;;;6.00;99.90;;;;;;10510596;28;20310;-77
2022/11/11 02:59:13;;;;;;;12.03;8.63;;;6.00;99.90;;;;;;10523979;28;20250;-77
2022/11/11 03:04:13;;;;;;;14.73;9.23;;;6.00;99.90;;;;;;10510844;28;20210;-75
2022/11/11 03:09:14;;;;;;;15.23;9.57;;;5.90;99.90;;;;;;10516337;28;20222;-77
2022/11/11 03:14:15;;;;;;;14.43;10.40;;;5.90;99.90;;;;;;10511700;28;20234;-75
2022/11/11 03:19:15;;;;;;;16.77;9.43;;;5.90;99.90;;;;;;10513154;28;20240;-75
2022/11/11 03:24:16;;;;;;;12.23;8.93;;;5.90;99.90;;;;;;10511642;28;20248;-75
2022/11/11 03:29:17;;;;;;;12.40;8.20;;;5.90;99.90;;;;;;10517412;28;20220;-76
2022/11/11 03:34:19;;;;;;;14.30;10.13;;;5.80;99.90;;;;;;10515610;28;20242;-77
2022/11/11 03:39:19;;;;;;;18.37;10.70;;;5.90;99.90;;;;;;10508368;28;20204;-77
2022/11/11 03:44:20;;;;;;;24.30;11.70;;;6.10;99.90;;;;;;10506498;28;20221;-77
2022/11/11 03:49:20;;;;;;;33.40;13.53;;;6.20;99.90;;;;;;10508797;28;20745;-77
2022/11/11 03:54:21;;;;;;;44.53;13.93;;;6.40;99.90;;;;;;10512634;28;20222;-77
2022/11/11 03:59:24;;;;;;;27.37;13.27;;;6.50;99.90;;;;;;10510378;28;20220;-77
2022/11/11 04:25:49;;;;;;;41.97;12.40;;;6.70;99.90;;;;;;10461143;28;20215;-77
2022/11/11 04:30:49;;;;;;;21.90;10.80;;;6.80;99.90;;;;;;10470221;28;20229;-76
2022/11/11 04:35:50;;;;;;;28.97;11.40;;;6.80;99.90;;;;;;10465108;28;20215;-76
2022/11/11 04:41:03;;;;;;;26.67;11.17;;;6.70;99.90;;;;;;10469878;28;20230;-77
2022/11/11 04:46:04;;;;;;;39.10;12.33;;;6.70;99.90;;;;;;10500528;28;20754;-77
2022/11/11 04:51:04;;;;;;;33.30;12.73;;;6.70;99.90;;;;;;10468427;28;20322;-77
2022/11/11 04:56:48;;;;;;;24.10;10.63;;;6.60;99.90;;;;;;10467310;28;20226;-77
2022/11/11 05:12:07;;;;;;;15.00;11.77;;;6.50;99.90;;;;;;10471504;28;20238;-76
2022/11/11 05:22:41;;;;;;;18.57;10.53;;;6.60;99.90;;;;;;10472511;28;20590;-78
2022/11/11 05:27:42;;;;;;;13.10;10.67;;;6.50;99.90;;;;;;10464596;28;20262;-78
2022/11/11 05:32:42;;;;;;;18.33;11.30;;;6.40;99.90;;;;;;10488119;28;20300;-77
2022/11/11 05:37:43;;;;;;;14.97;9.83;;;6.30;99.90;;;;;;10473082;28;20704;-76
2022/11/11 05:42:44;;;;;;;12.87;10.53;;;6.20;99.90;;;;;;10472858;28;20231;-77
2022/11/11 05:47:44;;;;;;;12.73;9.90;;;6.20;99.90;;;;;;10477601;28;20577;-76
2022/11/11 05:52:49;;;;;;;10.27;8.93;;;6.10;99.90;;;;;;10472468;28;20908;-77
2022/11/11 05:57:50;;;;;;;10.13;9.03;;;6.10;99.90;;;;;;10473875;28;20235;-78
2022/11/11 06:02:51;;;;;;;10.47;8.70;;;6.00;99.90;;;;;;10495503;28;20226;-78
2022/11/11 06:07:53;;;;;;;10.40;7.87;;;6.00;99.90;;;;;;10477204;28;20223;-78
2022/11/11 06:13:09;;;;;;;10.03;7.93;;;6.00;99.90;;;;;;10464279;28;20236;-75
2022/11/11 06:18:10;;;;;;;9.00;7.83;;;6.00;99.90;;;;;;10477070;28;20261;-77
2022/11/11 06:23:10;;;;;;;10.10;8.27;;;6.00;99.90;;;;;;10510941;28;20589;-76
2022/11/11 06:28:11;;;;;;;11.23;7.47;;;6.10;99.90;;;;;;10519157;28;20253;-75
2022/11/11 06:33:12;;;;;;;13.10;7.90;;;6.20;99.90;;;;;;10510098;28;20569;-78
2022/11/11 06:38:13;;;;;;;29.70;8.77;;;6.30;99.90;;;;;;10484201;28;20919;-77
2022/11/11 06:43:14;;;;;;;10.27;8.40;;;6.20;99.90;;;;;;10486984;28;20768;-79
2022/11/11 06:48:14;;;;;;;18.97;8.40;;;6.30;99.90;;;;;;10461659;28;20546;-69
2022/11/11 06:53:17;;;;;;;19.30;8.03;;;6.30;99.90;;;;;;10473283;28;20754;-69
2022/11/11 06:58:19;;;;;;;12.07;7.53;;;6.40;99.90;;;;;;10464954;28;20282;-73
2022/11/11 07:03:20;;;;;;;9.17;7.17;;;6.40;99.90;;;;;;10465876;28;20217;-74
2022/11/11 07:08:23;;;;;;;13.77;7.67;;;6.50;99.90;;;;;;10441390;28;20220;-73
2022/11/11 07:13:24;;;;;;;13.07;8.13;;;6.50;99.90;;;;;;10462311;28;20233;-73
2022/11/11 07:18:25;;;;;;;14.57;9.20;;;6.50;99.90;;;;;;10453077;28;20235;-72
2022/11/11 07:23:25;;;;;;;22.70;8.77;;;6.60;99.90;;;;;;10464656;28;20226;-73
2022/11/11 07:28:26;;;;;;;17.97;8.03;;;6.60;99.90;;;;;;10445912;28;20215;-72
2022/11/11 07:33:27;;;;;;;11.40;8.33;;;6.70;99.90;;;;;;10456458;28;20239;-71
2022/11/11 07:38:27;;;;;;;11.57;9.03;;;6.80;99.90;;;;;;10458859;28;20250;-71
2022/11/11 07:43:28;;;;;;;10.43;8.80;;;6.90;99.90;;;;;;10515304;28;20219;-71
2022/11/11 07:48:28;;;;;;;13.93;9.07;;;7.00;99.90;;;;;;10498640;28;20547;-72
2022/11/11 07:53:29;;;;;;;19.47;8.73;;;7.20;99.90;;;;;;10512641;28;20235;-71
2022/11/11 07:58:29;;;;;;;17.50;8.40;;;7.20;99.90;;;;;;10493550;28;20214;-71
2022/11/11 08:03:30;;;;;;;20.67;8.60;;;7.30;99.90;;;;;;10510474;28;20223;-70
2022/11/11 08:08:31;;;;;;;20.23;9.23;;;7.40;99.90;;;;;;10496943;28;20476;-73
2022/11/11 08:13:40;;;;;;;15.87;9.50;;;7.50;99.90;;;;;;10504304;28;20240;-71
2022/11/11 08:18:41;;;;;;;20.20;9.13;;;7.70;99.90;;;;;;10496024;28;20348;-72
2022/11/11 08:23:42;;;;;;;19.63;8.67;;;7.80;99.90;;;;;;10505458;28;20259;-71
2022/11/11 08:28:43;;;;;;;19.23;9.17;;;7.90;99.90;;;;;;10499404;28;20311;-72
2022/11/11 08:33:44;;;;;;;16.40;9.10;;;8.00;99.90;;;;;;10499349;28;20680;-72
2022/11/11 08:38:44;;;;;;;22.17;10.17;;;8.10;99.90;;;;;;10507190;28;20232;-72
2022/11/11 08:43:45;;;;;;;20.23;9.90;;;8.20;99.90;;;;;;10511241;28;20229;-71
2022/11/11 08:48:46;;;;;;;18.53;10.53;;;8.20;99.90;;;;;;10514751;28;21941;-69
2022/11/11 08:53:47;;;;;;;17.43;9.93;;;8.30;99.90;;;;;;10517374;28;20240;-76
2022/11/11 08:58:48;;;;;;;16.50;10.00;;;8.50;99.90;;;;;;10519027;28;20225;-76
2022/11/11 09:03:48;;;;;;;26.53;11.67;;;8.60;99.90;;;;;;10516436;28;20773;-77
2022/11/11 09:08:49;;;;;;;17.87;10.03;;;8.80;99.90;;;;;;10510284;28;20592;-76
2022/11/11 09:13:50;;;;;;;25.43;12.07;;;9.00;99.90;;;;;;10520705;28;20234;-78
2022/11/11 09:18:50;;;;;;;25.57;11.27;;;9.10;99.90;;;;;;10513247;28;20214;-77
2022/11/11 09:23:51;;;;;;;21.10;11.60;;;9.10;99.90;;;;;;10479987;28;20309;-76
2022/11/11 09:28:51;;;;;;;18.73;11.30;;;9.10;99.90;;;;;;10471103;28;20215;-77
2022/11/11 09:33:52;;;;;;;20.67;10.70;;;9.30;99.90;;;;;;10465325;28;20234;-76
2022/11/11 09:38:52;;;;;;;21.77;11.27;;;9.40;99.90;;;;;;10487232;28;20639;-77
2022/11/11 09:44:10;;;;;;;20.00;10.60;;;9.40;99.90;;;;;;10478889;28;20251;-78
2022/11/11 09:49:53;;;;;;;17.50;10.13;;;9.40;99.90;;;;;;10473436;28;20230;-78
2022/11/11 09:55:03;;;;;;;18.40;9.87;;;9.60;99.90;;;;;;10518720;28;20218;-77
2022/11/11 10:00:13;;;;;;;14.33;9.83;;;9.80;99.90;;;;;;10474015;28;20796;-77
2022/11/11 10:05:19;;;;;;;14.40;9.90;;;10.10;99.90;;;;;;10469350;28;20259;-76
2022/11/11 10:10:32;;;;;;;19.63;11.07;;;10.10;99.90;;;;;;10477437;28;20203;-77
2022/11/11 10:15:40;;;;;;;22.03;12.17;;;10.10;99.90;;;;;;10466477;28;20222;-76
2022/11/11 10:20:41;;;;;;;17.87;11.60;;;10.20;99.90;;;;;;10476168;28;20696;-77
2022/11/11 10:25:54;;;;;;;18.53;11.27;;;10.20;99.90;;;;;;10469977;28;20220;-78
2022/11/11 10:30:55;;;;;;;14.33;10.70;;;10.00;99.90;;;;;;10466163;28;20252;-78
2022/11/11 10:36:38;;;;;;;26.33;11.77;;;9.90;99.90;;;;;;10480287;28;20317;-78
2022/11/11 10:41:56;;;;;;;19.10;12.10;;;9.80;99.90;;;;;;10460348;28;20713;-77
2022/11/11 10:47:00;;;;;;;17.03;11.93;;;9.80;99.90;;;;;;10465824;28;20228;-77
2022/11/11 10:52:35;;;;;;;22.23;14.00;;;9.90;99.90;;;;;;10478991;28;20262;-77
2022/11/11 10:57:59;;;;;;;18.23;12.47;;;10.00;99.90;;;;;;10452981;28;20768;-76
2022/11/11 11:03:06;;;;;;;19.87;11.57;;;10.20;99.90;;;;;;10467605;28;20234;-78
2022/11/11 11:08:27;;;;;;;16.93;12.00;;;10.30;99.90;;;;;;10464058;28;20227;-77
2022/11/11 11:13:38;;;;;;;15.87;11.30;;;10.20;99.90;;;;;;10458639;28;20341;-77
2022/11/11 11:18:44;;;;;;;15.90;11.17;;;10.20;99.90;;;;;;10489942;28;20210;-76
2022/11/11 11:23:46;;;;;;;19.63;11.70;;;10.30;99.90;;;;;;10512306;28;20240;-76
2022/11/11 11:28:53;;;;;;;14.70;11.13;;;10.50;99.90;;;;;;10513946;28;20768;-77
2022/11/11 11:33:55;;;;;;;17.73;12.80;;;10.50;99.90;;;;;;10478957;28;20234;-76
2022/11/11 11:38:59;;;;;;;15.50;11.57;;;10.50;99.90;;;;;;10474196;28;20519;-77
2022/11/11 11:44:01;;;;;;;16.30;12.60;;;10.60;99.90;;;;;;10444691;28;20219;-77
2022/11/11 11:49:38;;;;;;;15.43;12.13;;;10.60;99.90;;;;;;10457294;28;20227;-77
2022/11/11 11:54:50;;;;;;;18.50;13.60;;;10.50;99.90;;;;;;10510667;28;20262;-76
2022/11/11 12:00:04;;;;;;;16.60;13.30;;;10.50;99.90;;;;;;10500127;28;20226;-76
2022/11/11 12:05:29;;;;;;;19.73;14.83;;;10.60;99.90;;;;;;10515643;28;20229;-75
2022/11/11 12:10:53;;;;;;;22.57;16.57;;;10.60;99.90;;;;;;10458076;28;20352;-77
2022/11/11 12:15:59;;;;;;;21.50;15.33;;;10.50;99.90;;;;;;10463830;28;20238;-78
2022/11/11 12:21:10;;;;;;;18.90;14.07;;;10.80;99.90;;;;;;10471901;28;20226;-79
2022/11/11 12:27:01;;;;;;;21.27;16.77;;;11.10;99.90;;;;;;10457040;28;20227;-77
2022/11/11 12:32:24;;;;;;;25.07;18.37;;;11.10;99.90;;;;;;10452578;28;20242;-77
2022/11/11 12:37:36;;;;;;;21.83;16.20;;;11.20;99.90;;;;;;10458377;28;20711;-78
2022/11/11 12:43:02;;;;;;;20.83;16.20;;;11.40;99.90;;;;;;10454502;28;20211;-78
2022/11/11 12:48:24;;;;;;;27.97;19.27;;;11.60;99.90;;;;;;10498354;28;20221;-77
2022/11/11 12:53:37;;;;;;;27.97;20.53;;;11.50;99.90;;;;;;10460172;28;20257;-78
2022/11/11 12:58:44;;;;;;;23.90;17.73;;;11.50;99.90;;;;;;10453631;28;20222;-77
2022/11/11 13:04:18;;;;;;;24.53;17.80;;;11.70;99.90;;;;;;10465117;28;20247;-78
2022/11/11 13:09:36;;;;;;;26.90;18.27;;;11.60;99.90;;;;;;10464206;28;20307;-78
2022/11/11 13:14:39;;;;;;;24.43;18.63;;;11.50;99.90;;;;;;10484028;28;20219;-77
2022/11/11 13:20:06;;;;;;;25.10;17.87;;;11.40;99.90;;;;;;10452138;28;20626;-78
2022/11/11 13:25:13;;;;;;;21.97;18.07;;;11.40;99.90;;;;;;10503626;28;20262;-77
2022/11/11 13:30:38;;;;;;;26.67;18.83;;;11.50;99.90;;;;;;10503047;28;20247;-76
2022/11/11 13:35:49;;;;;;;22.40;17.50;;;11.60;99.90;;;;;;10511462;28;20226;-76
2022/11/11 13:40:53;;;;;;;24.93;19.00;;;11.50;99.90;;;;;;10519486;28;20219;-76
2022/11/11 13:45:56;;;;;;;23.87;18.93;;;11.50;99.90;;;;;;10514715;28;20242;-78
2022/11/11 13:51:18;;;;;;;26.40;20.60;;;11.40;99.90;;;;;;10529273;28;20231;-78
2022/11/11 13:56:36;;;;;;;25.17;19.80;;;11.30;99.90;;;;;;10510731;28;20280;-77
2022/11/11 14:01:39;;;;;;;28.20;19.77;;;11.10;99.90;;;;;;10497330;28;20218;-77
2022/11/11 14:06:53;;;;;;;27.17;20.60;;;11.00;99.90;;;;;;10506177;28;20447;-79
2022/11/11 14:12:21;;;;;;;28.07;21.13;;;10.80;99.90;;;;;;10508215;28;20234;-77
2022/11/11 14:17:22;;;;;;;28.90;22.03;;;10.70;99.90;;;;;;10508731;28;20657;-79
2022/11/11 14:22:33;;;;;;;27.27;20.77;;;10.50;99.90;;;;;;10510969;28;20218;-78
2022/11/11 14:27:35;;;;;;;28.77;23.10;;;10.40;99.90;;;;;;10504567;28;20215;-77
2022/11/11 14:33:02;;;;;;;25.07;19.77;;;10.30;99.90;;;;;;10524678;28;20230;-78
2022/11/11 14:38:24;;;;;;;29.57;21.30;;;10.20;99.90;;;;;;10517300;28;20226;-78
2022/11/11 14:43:31;;;;;;;28.37;21.23;;;10.10;99.90;;;;;;10510807;28;20229;-79
2022/11/11 14:48:53;;;;;;;33.17;22.03;;;9.90;99.90;;;;;;10478211;28;20219;-79
2022/11/11 14:53:54;;;;;;;29.37;21.40;;;9.90;99.90;;;;;;10462403;28;20230;-79
2022/11/11 14:59:03;;;;;;;30.27;22.10;;;9.80;99.90;;;;;;10471703;28;20597;-77
2022/11/11 15:04:05;;;;;;;25.07;20.40;;;9.80;99.90;;;;;;10468924;28;20716;-80
2022/11/11 15:09:26;;;;;;;30.63;22.37;;;9.70;99.90;;;;;;10471368;28;20322;-78
2022/11/11 15:14:36;;;;;;;27.37;21.43;;;9.60;99.90;;;;;;10511603;28;20263;-81
2022/11/11 15:20:16;;;;;;;35.50;23.47;;;9.50;99.90;;;;;;10508848;28;20222;-80
2022/11/11 15:25:30;;;;;;;31.57;23.30;;;9.40;99.90;;;;;;10460877;28;20215;-80
2022/11/11 15:30:59;;;;;;;32.30;22.90;;;9.30;99.90;;;;;;10480629;28;20737;-78
2022/11/11 15:36:30;;;;;;;40.60;27.53;;;9.30;99.90;;;;;;10457281;28;20646;-77
2022/11/11 15:41:37;;;;;;;40.67;28.27;;;9.20;99.90;;;;;;10478460;28;20220;-78
2022/11/11 15:46:41;;;;;;;34.90;24.00;;;9.20;99.90;;;;;;10447924;28;20226;-78
2022/11/11 15:51:42;;;;;;;36.70;23.03;;;9.20;99.90;;;;;;10471909;28;20739;-78
2022/11/11 15:56:43;;;;;;;30.67;20.23;;;9.10;99.90;;;;;;10472338;28;20335;-77
2022/11/11 16:01:44;;;;;;;26.87;20.73;;;9.00;99.90;;;;;;10464367;28;20237;-75
2022/11/11 16:06:46;;;;;;;24.60;19.93;;;9.00;99.90;;;;;;10474625;28;20215;-76
2022/11/11 16:11:47;;;;;;;29.80;18.93;;;8.90;99.90;;;;;;10469927;28;20233;-77
2022/11/11 16:16:48;;;;;;;29.67;17.50;;;8.90;99.90;;;;;;10470702;28;20225;-76
2022/11/11 16:21:58;;;;;;;54.00;18.93;;;8.80;99.90;;;;;;10465262;28;20268;-76
2022/11/11 16:27:02;;;;;;;32.27;18.63;;;8.80;99.90;;;;;;10462710;28;20643;-76
2022/11/11 16:32:22;;;;;;;26.93;19.07;;;8.70;99.90;;;;;;10469545;28;20245;-75
2022/11/11 16:37:22;;;;;;;43.20;20.47;;;8.70;99.90;;;;;;10467704;28;20372;-77
2022/11/11 16:42:26;;;;;;;71.53;20.23;;;8.70;99.90;;;;;;10468821;28;20355;-77
2022/11/11 16:47:32;;;;;;;24.00;19.40;;;8.60;99.90;;;;;;10461277;28;20209;-77
2022/11/11 16:52:54;;;;;;;37.70;21.50;;;8.60;99.90;;;;;;10470259;28;20929;-76
2022/11/11 16:57:58;;;;;;;24.10;19.83;;;8.60;99.90;;;;;;10464608;28;20214;-77
2022/11/11 17:03:25;;;;;;;95.70;23.00;;;8.60;99.90;;;;;;10467360;28;20252;-77
2022/11/11 17:08:40;;;;;;;45.67;21.57;;;8.60;99.90;;;;;;10465448;28;20300;-76
2022/11/11 17:13:41;;;;;;;77.50;22.67;;;8.50;99.90;;;;;;10468889;28;20284;-77
2022/11/11 17:18:42;;;;;;;31.07;20.77;;;8.50;99.90;;;;;;10475128;28;20763;-77
2022/11/11 17:23:45;;;;;;;35.70;21.60;;;8.50;99.90;;;;;;10471905;28;20249;-77
2022/11/11 17:28:45;;;;;;;44.93;21.73;;;8.50;99.90;;;;;;10544577;27;20223;-77
2022/11/11 17:33:46;;;;;;;35.90;20.07;;;8.50;99.90;;;;;;10509712;28;20222;-76
2022/11/11 17:38:49;;;;;;;29.00;19.87;;;8.50;99.90;;;;;;10479900;28;20326;-77
2022/11/11 17:43:50;;;;;;;35.40;20.20;;;8.50;99.90;;;;;;10502649;28;20229;-76
2022/11/11 17:48:54;;;;;;;28.07;20.57;;;8.50;99.90;;;;;;10511487;28;20688;-76
2022/11/11 17:53:56;;;;;;;27.90;19.70;;;8.50;99.90;;;;;;10512589;28;20226;-76
2022/11/11 17:58:57;;;;;;;31.07;21.03;;;8.50;99.90;;;;;;10517544;28;20607;-77
2022/11/11 18:03:58;;;;;;;28.10;19.33;;;8.50;99.90;;;;;;10514912;28;20228;-76
2022/11/11 18:08:59;;;;;;;26.30;19.53;;;8.40;99.90;;;;;;10532727;28;20599;-77
2022/11/11 18:14:00;;;;;;;21.97;17.20;;;8.50;99.90;;;;;;10528654;28;20309;-77
2022/11/11 18:19:01;;;;;;;66.23;19.60;;;8.50;99.90;;;;;;10511640;28;20303;-77
2022/11/11 18:24:05;;;;;;;24.43;17.13;;;8.40;99.90;;;;;;10518995;28;20224;-76
2022/11/11 18:29:07;;;;;;;44.13;19.17;;;8.40;99.90;;;;;;10509454;28;20221;-77
2022/11/11 18:34:08;;;;;;;26.00;17.00;;;8.30;99.90;;;;;;10507662;28;20231;-77
2022/11/11 18:39:08;;;;;;;28.50;16.10;;;8.30;99.90;;;;;;10518116;28;20697;-76
2022/11/11 18:44:09;;;;;;;19.23;15.17;;;8.20;99.90;;;;;;10517032;28;20619;-76
2022/11/11 18:49:13;;;;;;;20.67;16.43;;;8.20;99.90;;;;;;10513098;28;20273;-77
2022/11/11 18:54:14;;;;;;;20.40;15.77;;;8.30;99.90;;;;;;10509904;28;20371;-77
2022/11/11 18:59:15;;;;;;;27.47;16.27;;;8.30;99.90;;;;;;10509940;28;20221;-77
2022/11/11 19:04:16;;;;;;;21.83;16.13;;;8.30;99.90;;;;;;10510844;28;20224;-76
2022/11/11 19:09:16;;;;;;;24.73;18.07;;;8.30;99.90;;;;;;10509730;28;20740;-77
2022/11/11 19:14:17;;;;;;;25.37;19.80;;;8.30;99.90;;;;;;10509296;28;20231;-77
2022/11/11 19:19:18;;;;;;;26.87;17.93;;;8.40;99.90;;;;;;10509661;28;20744;-77
2022/11/11 19:24:18;;;;;;;22.10;18.20;;;8.30;99.90;;;;;;10509867;28;20262;-77
2022/11/11 19:29:19;;;;;;;24.30;18.57;;;8.20;99.90;;;;;;10511390;28;20227;-76
2022/11/11 19:34:20;;;;;;;31.03;18.73;;;8.20;99.90;;;;;;10511251;28;20225;-77
2022/11/11 19:39:20;;;;;;;24.67;18.10;;;8.30;99.90;;;;;;10510431;28;20213;-76
2022/11/11 19:44:24;;;;;;;22.30;17.47;;;8.30;99.90;;;;;;10516986;28;20213;-77
2022/11/11 19:49:25;;;;;;;23.90;18.27;;;8.30;99.90;;;;;;10475528;28;20596;-76
2022/11/11 19:54:25;;;;;;;34.13;19.97;;;8.30;99.90;;;;;;10455008;28;20222;-77
2022/11/11 19:59:26;;;;;;;20.90;17.10;;;8.20;99.90;;;;;;10472194;28;20815;-77
2022/11/11 20:04:28;;;;;;;28.00;19.37;;;8.20;99.90;;;;;;10483556;28;20212;-76
2022/11/11 20:09:30;;;;;;;25.40;18.53;;;8.30;99.90;;;;;;10458661;28;20600;-77
2022/11/11 20:14:31;;;;;;;21.57;17.03;;;8.30;99.90;;;;;;10472164;28;20230;-76
2022/11/11 20:19:31;;;;;;;20.63;16.57;;;8.30;99.90;;;;;;10459639;28;20223;-77
2022/11/11 20:24:32;;;;;;;21.10;15.67;;;8.30;99.90;;;;;;10465371;28;20208;-76
2022/11/11 20:29:32;;;;;;;24.17;18.90;;;8.30;99.90;;;;;;10465962;28;20314;-78
2022/11/11 20:34:40;;;;;;;23.57;19.17;;;8.40;99.90;;;;;;10479977;28;20709;-77
2022/11/11 20:39:40;;;;;;;81.77;19.83;;;8.40;99.90;;;;;;10464947;28;20217;-77
2022/11/11 20:44:41;;;;;;;18.73;16.13;;;8.30;99.90;;;;;;10461271;28;20229;-77
2022/11/11 20:49:42;;;;;;;37.83;17.40;;;8.20;99.90;;;;;;10471665;28;20650;-77
2022/11/11 20:54:42;;;;;;;23.33;18.67;;;8.10;99.90;;;;;;10455392;28;20226;-77
2022/11/11 20:59:43;;;;;;;23.13;18.53;;;8.10;99.90;;;;;;10472380;28;20308;-78
2022/11/11 21:04:43;;;;;;;21.00;17.10;;;8.10;99.90;;;;;;10462652;28;20229;-77
2022/11/11 21:09:44;;;;;;;20.80;17.07;;;8.10;99.90;;;;;;10471449;28;20679;-76
2022/11/11 21:14:46;;;;;;;23.80;18.07;;;8.10;99.90;;;;;;10464527;28;20248;-77
2022/11/11 21:19:46;;;;;;;22.33;17.87;;;8.20;99.90;;;;;;10470663;28;20248;-78
2022/11/11 21:24:47;;;;;;;40.23;17.47;;;8.20;99.90;;;;;;10467692;28;20306;-77
2022/11/11 21:29:47;;;;;;;25.63;17.03;;;8.20;99.90;;;;;;10466140;28;20284;-77
2022/11/11 21:34:48;;;;;;;22.87;17.00;;;8.20;99.90;;;;;;10462920;28;20778;-78
2022/11/11 21:39:48;;;;;;;23.10;17.60;;;8.10;99.90;;;;;;10469249;28;20589;-77
2022/11/11 21:44:49;;;;;;;46.07;19.63;;;8.10;99.90;;;;;;10462352;28;20271;-77
2022/11/11 21:49:53;;;;;;;47.57;18.93;;;8.10;99.90;;;;;;10474721;28;20221;-76
2022/11/11 21:54:53;;;;;;;25.57;17.30;;;8.10;99.90;;;;;;10470976;28;20233;-77
2022/11/11 21:59:54;;;;;;;47.80;19.77;;;8.10;99.90;;;;;;10471036;28;20301;-76
2022/11/11 22:04:54;;;;;;;46.60;20.00;;;8.10;99.90;;;;;;10478589;28;20212;-76
2022/11/11 22:09:58;;;;;;;60.07;18.87;;;8.00;99.90;;;;;;10478865;28;20217;-77
2022/11/11 22:14:58;;;;;;;35.00;19.83;;;8.00;99.90;;;;;;10476760;28;20254;-77
2022/11/11 22:19:59;;;;;;;34.97;16.10;;;7.90;99.90;;;;;;10473383;28;20227;-77
2022/11/11 22:24:59;;;;;;;45.57;13.00;;;7.90;99.90;;;;;;10469990;28;20252;-77
2022/11/11 22:30:00;;;;;;;24.17;13.97;;;7.80;99.90;;;;;;10469870;28;20222;-77
2022/11/11 22:35:01;;;;;;;19.33;10.27;;;7.70;99.90;;;;;;10469106;28;20965;-76
2022/11/11 22:40:01;;;;;;;35.13;11.30;;;7.60;99.90;;;;;;10473653;28;20674;-77
2022/11/11 22:45:08;;;;;;;12.67;11.00;;;7.70;99.90;;;;;;10464942;28;20223;-77
2022/11/11 22:50:09;;;;;;;27.30;11.53;;;7.60;99.90;;;;;;10503605;28;20296;-77
2022/11/11 22:55:09;;;;;;;41.63;11.27;;;7.60;99.90;;;;;;10470417;28;20385;-77
2022/11/11 23:00:11;;;;;;;29.50;10.50;;;7.70;99.90;;;;;;10472186;28;20679;-76
2022/11/11 23:05:12;;;;;;;30.43;9.70;;;7.60;99.90;;;;;;10468627;28;20204;-76
2022/11/11 23:10:12;;;;;;;19.60;9.87;;;7.50;99.90;;;;;;10470220;28;20557;-77
2022/11/11 23:15:13;;;;;;;11.47;8.83;;;7.60;99.90;;;;;;10469017;28;20222;-76
2022/11/11 23:20:14;;;;;;;16.40;8.87;;;7.70;99.90;;;;;;10468994;28;20316;-77
2022/11/11 23:25:14;;;;;;;8.73;7.87;;;7.70;99.90;;;;;;10470646;28;20185;-75
2022/11/11 23:30:15;;;;;;;13.20;7.77;;;7.70;99.90;;;;;;10469790;28;20274;-77
2022/11/11 23:35:16;;;;;;;9.57;8.27;;;7.70;99.90;;;;;;10474538;28;20764;-77
2022/11/11 23:40:16;;;;;;;11.13;7.70;;;7.70;99.90;;;;;;10463504;28;20260;-77
2022/11/11 23:45:17;;;;;;;8.87;7.60;;;7.70;99.90;;;;;;10465974;28;20536;-77
2022/11/11 23:50:17;;;;;;;13.97;8.90;;;7.70;99.90;;;;;;10466010;28;20195;-77
2022/11/11 23:55:18;;;;;;;9.33;8.30;;;7.70;99.90;;;;;;10471785;28;20292;-77
